createdAt,value
2023-02-05T00:00:19.929Z,102897.25
2023-02-05T00:02:21.448Z,102869.59
2023-02-05T00:04:23.008Z,102864.41
2023-02-05T00:06:24.471Z,102881.69
2023-02-05T00:08:25.905Z,102893.72
2023-02-05T00:10:27.384Z,102878.16
2023-02-05T00:12:28.844Z,102872.91
2023-02-05T00:14:30.249Z,102878.09
2023-02-05T00:16:31.799Z,102861.66
2023-02-05T00:18:33.207Z,102903.97
2023-02-05T00:20:34.861Z,102883.25
2023-02-05T00:22:36.660Z,102884.84
2023-02-05T00:24:38.077Z,102870.19
2023-02-05T00:26:41.102Z,102891.84
2023-02-05T00:28:43.285Z,102900.44
2023-02-05T00:30:44.737Z,102902.94
2023-02-05T00:32:46.214Z,102891.72
2023-02-05T00:34:47.843Z,102895.22
2023-02-05T00:36:49.270Z,102886.56
2023-02-05T00:38:51.633Z,102883.91
2023-02-05T00:40:53.161Z,102917.59
2023-02-05T00:42:54.563Z,102918.41
2023-02-05T00:44:56.239Z,102915.81
2023-02-05T00:46:57.915Z,102919.25
2023-02-05T00:48:59.329Z,102912.38
2023-02-05T00:51:00.788Z,102919.25
2023-02-05T00:53:02.474Z,102908.03
2023-02-05T00:55:04.217Z,102914.03
2023-02-05T00:57:05.801Z,102891.59
2023-02-05T00:59:07.351Z,102896.69
2023-02-05T01:01:08.866Z,102903.63
2023-02-05T01:03:10.396Z,102884.66
2023-02-05T01:05:12.165Z,102921.81
2023-02-05T01:07:13.565Z,102897.47
2023-02-05T01:09:14.968Z,102904.47
2023-02-05T01:11:16.506Z,102899.28
2023-02-05T01:13:18.974Z,102919.16
2023-02-05T01:15:20.702Z,102929.44
2023-02-05T01:17:22.211Z,102932.78
2023-02-05T01:19:23.633Z,102919.72
2023-02-05T01:21:25.336Z,102926.53
2023-02-05T01:23:26.879Z,102887.59
2023-02-05T01:25:28.312Z,102941.94
2023-02-05T01:27:29.864Z,102916.84
2023-02-05T01:29:31.336Z,102917.69
2023-02-05T01:31:32.859Z,102945.31
2023-02-05T01:33:35.410Z,102945.41
2023-02-05T01:35:37.007Z,102938.34
2023-02-05T01:37:38.455Z,102948.72
2023-02-05T01:39:39.939Z,102951.19
2023-02-05T01:41:42.143Z,102947.00
2023-02-05T01:43:43.575Z,102927.94
2023-02-05T01:45:59.213Z,102918.50
2023-02-05T01:48:03.567Z,102943.53
2023-02-05T01:50:05.177Z,102939.25
2023-02-05T01:52:15.974Z,102934.16
2023-02-05T01:54:20.415Z,102936.81
2023-02-05T01:56:26.412Z,102936.78
2023-02-05T01:58:33.230Z,102922.78
2023-02-05T02:00:34.768Z,102915.03
2023-02-05T02:02:37.348Z,102943.50
2023-02-05T02:04:49.904Z,102915.66
2023-02-05T02:06:51.716Z,102944.13
2023-02-05T02:08:53.383Z,102919.97
2023-02-05T02:10:56.760Z,102929.47
2023-02-05T02:12:58.532Z,102958.16
2023-02-05T02:15:03.550Z,102940.94
2023-02-05T02:17:06.080Z,102942.69
2023-02-05T02:19:21.399Z,102960.00
2023-02-05T02:21:43.909Z,102961.69
2023-02-05T02:23:59.649Z,102968.53
2023-02-05T02:26:37.493Z,102946.28
2023-02-05T02:28:47.038Z,102972.34
2023-02-05T02:31:18.746Z,102967.22
2023-02-05T02:33:29.130Z,102968.06
2023-02-05T02:35:54.746Z,102961.31
2023-02-05T02:38:16.003Z,102957.81
2023-02-05T02:40:28.817Z,102967.44
2023-02-05T02:42:40.272Z,102921.72
2023-02-05T02:44:48.319Z,102951.13
2023-02-05T02:46:55.068Z,102948.59
2023-02-05T02:49:01.549Z,102916.66
2023-02-05T02:51:03.719Z,102909.72
2023-02-05T02:53:14.813Z,102950.44
2023-02-05T02:55:18.564Z,102933.31
2023-02-05T02:57:22.699Z,102926.53
2023-02-05T02:59:28.166Z,102930.03
2023-02-05T03:01:33.968Z,102886.84
2023-02-05T03:03:40.331Z,102920.53
2023-02-05T03:05:44.636Z,102917.00
2023-02-05T03:07:54.611Z,102936.84
2023-02-05T03:10:24.462Z,102940.34
2023-02-05T03:12:26.418Z,102947.97
2023-02-05T03:14:27.847Z,102906.44
2023-02-05T03:16:29.517Z,102922.09
2023-02-05T03:18:31.781Z,102942.75
2023-02-05T03:20:42.866Z,102950.56
2023-02-05T03:22:44.610Z,102941.88
2023-02-05T03:24:46.183Z,102950.47
2023-02-05T03:26:47.629Z,102914.22
2023-02-05T03:28:49.065Z,102908.28
2023-02-05T03:31:01.100Z,102935.94
2023-02-05T03:33:24.357Z,102927.34
2023-02-05T03:35:30.581Z,102912.66
2023-02-05T03:37:50.867Z,102925.59
2023-02-05T03:40:18.895Z,102934.22
2023-02-05T03:42:36.418Z,102926.41
2023-02-05T03:45:00.176Z,102928.13
2023-02-05T03:47:26.068Z,102935.94
2023-02-05T03:50:00.736Z,102941.13
2023-02-05T03:52:13.538Z,102944.50
2023-02-05T03:54:32.674Z,102932.31
2023-02-05T03:56:46.207Z,102950.34
2023-02-05T03:58:52.174Z,102932.06
2023-02-05T04:00:53.611Z,102940.66
2023-02-05T04:02:55.197Z,102916.44
2023-02-05T04:04:56.976Z,102953.59
2023-02-05T04:06:58.446Z,102927.47
2023-02-05T04:09:00.100Z,102937.00
2023-02-05T04:11:01.680Z,102962.09
2023-02-05T04:13:03.561Z,102928.34
2023-02-05T04:15:05.544Z,102954.44
2023-02-05T04:17:07.144Z,102961.38
2023-02-05T04:19:08.590Z,102969.19
2023-02-05T04:21:10.196Z,102959.69
2023-02-05T04:23:12.064Z,102964.94
2023-02-05T04:25:13.584Z,102945.88
2023-02-05T04:27:15.080Z,102935.56
2023-02-05T04:29:16.626Z,102965.81
2023-02-05T04:31:18.057Z,102975.38
2023-02-05T04:33:19.560Z,102940.84
2023-02-05T04:35:21.098Z,102974.63
2023-02-05T04:37:22.512Z,102956.38
2023-02-05T04:39:24.052Z,102978.91
2023-02-05T04:41:25.607Z,102953.88
2023-02-05T04:43:27.436Z,102945.16
2023-02-05T04:45:29.070Z,102977.25
2023-02-05T04:47:30.629Z,102985.00
2023-02-05T04:49:33.195Z,102982.44
2023-02-05T04:51:34.729Z,102961.69
2023-02-05T04:53:36.628Z,102984.25
2023-02-05T04:55:38.123Z,102988.56
2023-02-05T04:57:39.554Z,102970.44
2023-02-05T04:59:41.181Z,102923.78
2023-02-05T05:01:42.605Z,102974.81
2023-02-05T05:03:44.506Z,102961.06
2023-02-05T05:05:46.030Z,102964.53
2023-02-05T05:07:47.477Z,102951.59
2023-02-05T05:09:49.758Z,102967.16
2023-02-05T05:11:52.998Z,102976.63
2023-02-05T05:13:54.431Z,102982.66
2023-02-05T05:15:56.669Z,102958.50
2023-02-05T05:17:58.250Z,102930.84
2023-02-05T05:19:59.797Z,102930.06
2023-02-05T05:22:01.393Z,102944.75
2023-02-05T05:24:03.145Z,102966.34
2023-02-05T05:26:06.972Z,102962.84
2023-02-05T05:28:08.559Z,102952.47
2023-02-05T05:30:10.760Z,102929.13
2023-02-05T05:32:13.403Z,102982.72
2023-02-05T05:34:15.191Z,102981.88
2023-02-05T05:36:17.311Z,102972.38
2023-02-05T05:38:18.724Z,102981.91
2023-02-05T05:40:20.326Z,102957.69
2023-02-05T05:42:21.865Z,102972.41
2023-02-05T05:44:23.264Z,102977.59
2023-02-05T05:46:26.007Z,102961.16
2023-02-05T05:48:27.790Z,102983.63
2023-02-05T05:50:29.213Z,102962.94
2023-02-05T05:52:32.498Z,102973.25
2023-02-05T05:54:34.331Z,102973.31
2023-02-05T05:56:35.722Z,102994.91
2023-02-05T05:58:37.575Z,102964.63
2023-02-05T06:00:39.717Z,102956.00
2023-02-05T06:02:41.545Z,102997.50
2023-02-05T06:04:43.059Z,102995.78
2023-02-05T06:06:44.580Z,102971.56
2023-02-05T06:08:45.987Z,102965.53
2023-02-05T06:10:47.681Z,102933.53
2023-02-05T06:12:49.244Z,102970.72
2023-02-05T06:14:50.638Z,102981.06
2023-02-05T06:16:52.270Z,102944.78
2023-02-05T06:18:55.831Z,102984.50
2023-02-05T06:20:57.885Z,102991.44
2023-02-05T06:22:59.393Z,102970.69
2023-02-05T06:25:00.972Z,102962.06
2023-02-05T06:27:02.384Z,103004.38
2023-02-05T06:29:03.883Z,102986.25
2023-02-05T06:31:06.368Z,103000.09
2023-02-05T06:33:07.852Z,103007.84
2023-02-05T06:35:09.432Z,103005.28
2023-02-05T06:37:11.006Z,102992.31
2023-02-05T06:39:12.450Z,103008.72
2023-02-05T06:41:13.966Z,103020.81
2023-02-05T06:43:15.847Z,103016.50
2023-02-05T06:45:17.292Z,103022.56
2023-02-05T06:47:18.848Z,103008.72
2023-02-05T06:49:20.567Z,103000.94
2023-02-05T06:51:22.053Z,103009.56
2023-02-05T06:53:23.462Z,103023.41
2023-02-05T06:55:25.022Z,103026.88
2023-02-05T06:57:26.569Z,103028.56
2023-02-05T06:59:28.079Z,103019.97
2023-02-05T07:01:29.769Z,103035.53
2023-02-05T07:03:31.193Z,103019.97
2023-02-05T07:05:34.603Z,103004.38
2023-02-05T07:07:36.386Z,103032.91
2023-02-05T07:09:37.782Z,103051.06
2023-02-05T07:11:39.316Z,103031.19
2023-02-05T07:13:40.908Z,103057.13
2023-02-05T07:15:42.315Z,103050.22
2023-02-05T07:17:44.077Z,103029.44
2023-02-05T07:19:45.751Z,103016.50
2023-02-05T07:21:47.160Z,103042.41
2023-02-05T07:23:48.709Z,103064.00
2023-02-05T07:25:50.265Z,103053.59
2023-02-05T07:27:51.702Z,103052.75
2023-02-05T07:29:53.142Z,103083.91
2023-02-05T07:31:54.694Z,103063.16
2023-02-05T07:33:56.137Z,103088.22
2023-02-05T07:35:57.622Z,103088.22
2023-02-05T07:37:59.172Z,103088.22
2023-02-05T07:40:00.600Z,103057.94
2023-02-05T07:42:02.089Z,103092.50
2023-02-05T07:44:03.722Z,103091.63
2023-02-05T07:46:11.031Z,103056.22
2023-02-05T07:48:12.620Z,103062.28
2023-02-05T07:50:14.174Z,103095.97
2023-02-05T07:52:15.605Z,103076.97
2023-02-05T07:54:17.170Z,103102.06
2023-02-05T07:56:19.484Z,103104.66
2023-02-05T07:58:21.036Z,103102.06
2023-02-05T08:00:22.664Z,103093.44
2023-02-05T08:02:24.262Z,103121.94
2023-02-05T08:04:25.773Z,103119.34
2023-02-05T08:06:27.353Z,103103.75
2023-02-05T08:08:28.975Z,103105.50
2023-02-05T08:10:30.589Z,103125.41
2023-02-05T08:12:32.735Z,103093.38
2023-02-05T08:14:35.371Z,103122.75
2023-02-05T08:16:36.875Z,103122.72
2023-02-05T08:18:38.732Z,103120.09
2023-02-05T08:20:40.172Z,103089.00
2023-02-05T08:22:43.113Z,103100.22
2023-02-05T08:24:44.617Z,103083.75
2023-02-05T08:26:46.108Z,103109.72
2023-02-05T08:28:47.543Z,103127.00
2023-02-05T08:30:49.129Z,103110.53
2023-02-05T08:32:51.485Z,103137.31
2023-02-05T08:34:53.028Z,103139.06
2023-02-05T08:36:54.580Z,103120.03
2023-02-05T08:38:56.137Z,103139.91
2023-02-05T08:40:57.528Z,103145.06
2023-02-05T08:42:59.555Z,103104.41
2023-02-05T08:45:01.213Z,103124.94
2023-02-05T08:47:02.600Z,103134.53
2023-02-05T08:49:04.229Z,103119.88
2023-02-05T08:51:06.377Z,103145.88
2023-02-05T08:53:07.797Z,103141.56
2023-02-05T08:55:09.392Z,103151.91
2023-02-05T08:57:11.037Z,103143.28
2023-02-05T08:59:12.750Z,103158.06
2023-02-05T09:01:16.184Z,103127.81
2023-02-05T09:03:17.888Z,103150.31
2023-02-05T09:05:19.401Z,103151.13
2023-02-05T09:07:20.973Z,103171.81
2023-02-05T09:09:22.871Z,103156.25
2023-02-05T09:11:24.660Z,103172.66
2023-02-05T09:13:26.187Z,103119.94
2023-02-05T09:15:27.676Z,103165.78
2023-02-05T09:17:29.070Z,103161.41
2023-02-05T09:19:33.526Z,103171.81
2023-02-05T09:21:35.187Z,103139.81
2023-02-05T09:23:37.046Z,103156.16
2023-02-05T09:25:39.584Z,103128.56
2023-02-05T09:27:41.837Z,103159.56
2023-02-05T09:29:43.319Z,103127.59
2023-02-05T09:31:44.942Z,103159.47
2023-02-05T09:33:46.947Z,103160.16
2023-02-05T09:35:48.351Z,103138.53
2023-02-05T09:37:49.979Z,103120.09
2023-02-05T09:42:20.406Z,103153.00
2023-02-05T09:44:46.154Z,103152.50
2023-02-05T09:46:52.956Z,103143.06
2023-02-05T09:49:12.950Z,103160.47
2023-02-05T09:51:14.847Z,103152.78
2023-02-05T09:53:20.357Z,103160.41
2023-02-05T09:55:28.925Z,103160.59
2023-02-05T09:57:35.115Z,103153.50
2023-02-05T09:59:37.451Z,103150.56
2023-02-05T10:01:50.996Z,103141.59
2023-02-05T10:03:59.770Z,103131.13
2023-02-05T10:06:10.582Z,103153.19
2023-02-05T10:08:30.784Z,103132.16
2023-02-05T10:10:47.774Z,103134.44
2023-02-05T10:13:07.028Z,103144.44
2023-02-05T10:15:31.128Z,103137.94
2023-02-05T10:18:00.914Z,103134.84
2023-02-05T10:20:28.471Z,103148.84
2023-02-05T10:22:51.618Z,103135.31
2023-02-05T10:25:19.367Z,103055.09
2023-02-05T10:27:35.272Z,103135.13
2023-02-05T10:29:36.768Z,103134.00
2023-02-05T10:31:48.552Z,103104.75
2023-02-05T10:33:53.465Z,103113.22
2023-02-05T10:36:05.137Z,103117.84
2023-02-05T10:38:15.826Z,103103.19
2023-02-05T10:40:22.106Z,103089.88
2023-02-05T10:42:39.533Z,103112.81
2023-02-05T10:44:44.895Z,103110.59
2023-02-05T10:46:47.725Z,103092.47
2023-02-05T10:49:01.312Z,103106.03
2023-02-05T10:51:06.805Z,103112.53
2023-02-05T10:53:08.521Z,103082.34
2023-02-05T10:55:13.829Z,103108.31
2023-02-05T10:57:20.667Z,103105.56
2023-02-05T10:59:29.252Z,103080.75
2023-02-05T11:01:36.662Z,103097.88
2023-02-05T11:03:38.430Z,103077.91
2023-02-05T11:05:41.837Z,103070.06
2023-02-05T11:07:48.677Z,103089.47
2023-02-05T11:09:50.414Z,103083.25
2023-02-05T11:11:56.934Z,103074.44
2023-02-05T11:14:02.224Z,103075.97
2023-02-05T11:16:08.511Z,103046.13
2023-02-05T11:18:23.662Z,103081.09
2023-02-05T11:20:29.073Z,103061.19
2023-02-05T11:22:36.427Z,103055.22
2023-02-05T11:24:38.989Z,103054.13
2023-02-05T11:26:40.501Z,103070.09
2023-02-05T11:28:41.977Z,103057.59
2023-02-05T11:30:51.962Z,103068.03
2023-02-05T11:32:54.617Z,103051.59
2023-02-05T11:35:08.890Z,103074.00
2023-02-05T11:37:16.126Z,103081.16
2023-02-05T11:39:36.813Z,103077.72
2023-02-05T11:41:40.669Z,103078.25
2023-02-05T11:43:50.150Z,103078.16
2023-02-05T11:45:53.524Z,103069.66
2023-02-05T11:47:55.155Z,103071.13
2023-02-05T11:49:58.554Z,103030.00
2023-02-05T11:52:01.091Z,103034.94
2023-02-05T11:54:25.677Z,103078.16
2023-02-05T11:56:27.156Z,103043.25
2023-02-05T11:58:36.816Z,103051.09
2023-02-05T12:00:51.362Z,103074.03
2023-02-05T12:03:07.381Z,103074.16
2023-02-05T12:05:20.857Z,103070.69
2023-02-05T12:07:24.841Z,103045.44
2023-02-05T12:09:27.175Z,103064.75
2023-02-05T12:11:51.199Z,103060.00
2023-02-05T12:13:58.375Z,103062.47
2023-02-05T12:16:02.963Z,103068.34
2023-02-05T12:18:22.506Z,103039.28
2023-02-05T12:20:34.900Z,103036.13
2023-02-05T12:23:01.407Z,103058.09
2023-02-05T12:25:27.340Z,103044.56
2023-02-05T12:27:31.860Z,103044.34
2023-02-05T12:29:45.077Z,103063.31
2023-02-05T12:32:06.809Z,103058.47
2023-02-05T12:34:26.886Z,103053.94
2023-02-05T12:36:36.798Z,103034.94
2023-02-05T12:39:14.355Z,103027.78
2023-02-05T12:41:22.359Z,103036.69
2023-02-05T12:43:38.494Z,103030.50
2023-02-05T12:45:51.648Z,103027.81
2023-02-05T12:48:01.775Z,103043.03
2023-02-05T12:50:27.272Z,103044.38
2023-02-05T12:52:52.413Z,103039.53
2023-02-05T12:55:13.228Z,103039.38
2023-02-05T12:57:19.693Z,102989.44
2023-02-05T12:59:35.478Z,103033.28
2023-02-05T13:02:03.943Z,103043.59
2023-02-05T13:04:07.377Z,103039.19
2023-02-05T13:06:31.695Z,103034.88
2023-02-05T13:08:45.395Z,103039.47
2023-02-05T13:10:52.392Z,103040.38
2023-02-05T13:13:04.778Z,103035.84
2023-02-05T13:15:18.490Z,103035.91
2023-02-05T13:17:34.029Z,103044.81
2023-02-05T13:19:40.170Z,103050.69
2023-02-05T13:21:42.428Z,103050.47
2023-02-05T13:23:46.428Z,103039.25
2023-02-05T13:25:50.150Z,103043.44
2023-02-05T13:27:57.314Z,103047.63
2023-02-05T13:29:59.841Z,103057.38
2023-02-05T13:32:15.259Z,103053.97
2023-02-05T13:34:18.280Z,103019.66
2023-02-05T13:36:30.340Z,103043.78
2023-02-05T13:38:42.676Z,102972.28
2023-02-05T13:41:03.157Z,103049.88
2023-02-05T13:43:35.703Z,103060.28
2023-02-05T13:45:39.987Z,103060.03
2023-02-05T13:48:12.736Z,103059.97
2023-02-05T13:50:26.533Z,103047.28
2023-02-05T13:52:46.744Z,103068.25
2023-02-05T13:55:04.883Z,103053.66
2023-02-05T13:57:32.080Z,103064.03
2023-02-05T13:59:48.950Z,103061.22
2023-02-05T14:02:00.169Z,103074.31
2023-02-05T14:04:15.214Z,103058.69
2023-02-05T14:06:22.929Z,103065.66
2023-02-05T14:08:34.319Z,103064.06
2023-02-05T14:10:40.983Z,103055.38
2023-02-05T14:12:42.475Z,103060.63
2023-02-05T14:14:43.898Z,103056.25
2023-02-05T14:16:45.577Z,103061.41
2023-02-05T14:18:49.700Z,103064.75
2023-02-05T14:20:51.174Z,103047.34
2023-02-05T14:22:55.116Z,103067.50
2023-02-05T14:24:56.744Z,103056.16
2023-02-05T14:26:58.425Z,103056.25
2023-02-05T14:29:00.115Z,103051.94
2023-02-05T14:31:03.461Z,103058.78
2023-02-05T14:33:10.731Z,103049.25
2023-02-05T14:35:32.643Z,103051.91
2023-02-05T14:37:37.647Z,103023.50
2023-02-05T14:39:39.223Z,103000.22
2023-02-05T14:41:40.683Z,103065.13
2023-02-05T14:43:45.047Z,103065.97
2023-02-05T14:45:50.110Z,103044.31
2023-02-05T14:47:51.757Z,103063.13
2023-02-05T14:50:05.589Z,103051.13
2023-02-05T14:52:33.769Z,103060.59
2023-02-05T14:54:47.442Z,103059.78
2023-02-05T14:56:53.484Z,103053.78
2023-02-05T14:59:01.004Z,103068.44
2023-02-05T15:01:33.487Z,103067.59
2023-02-05T15:03:39.262Z,103036.63
2023-02-05T15:05:43.583Z,103066.91
2023-02-05T15:07:46.457Z,103039.34
2023-02-05T15:09:59.914Z,103068.72
2023-02-05T15:12:07.483Z,103067.84
2023-02-05T15:14:21.275Z,103080.94
2023-02-05T15:16:22.821Z,103023.19
2023-02-05T15:18:28.717Z,103087.94
2023-02-05T15:20:32.835Z,103088.78
2023-02-05T15:22:40.998Z,103081.09
2023-02-05T15:24:44.038Z,103092.31
2023-02-05T15:26:51.886Z,103100.09
2023-02-05T15:28:59.598Z,103073.38
2023-02-05T15:31:19.280Z,103075.13
2023-02-05T15:33:30.911Z,103113.22
2023-02-05T15:35:34.409Z,103107.16
2023-02-05T15:37:45.138Z,103101.09
2023-02-05T15:39:59.564Z,103087.28
2023-02-05T15:42:04.939Z,103098.56
2023-02-05T15:44:20.718Z,103103.72
2023-02-05T15:46:22.322Z,103085.63
2023-02-05T15:48:29.544Z,103110.72
2023-02-05T15:50:32.456Z,103058.84
2023-02-05T15:52:35.010Z,103108.94
2023-02-05T15:54:36.824Z,103081.28
2023-02-05T15:56:41.592Z,103107.22
2023-02-05T15:58:50.698Z,103106.34
2023-02-05T16:00:53.723Z,103111.56
2023-02-05T16:02:59.926Z,103116.75
2023-02-05T16:05:18.027Z,103078.72
2023-02-05T16:07:26.598Z,103118.50
2023-02-05T16:09:30.699Z,103102.94
2023-02-05T16:11:34.667Z,103096.88
2023-02-05T16:13:36.247Z,103064.91
2023-02-05T16:16:07.336Z,103099.50
2023-02-05T16:18:19.202Z,103051.06
2023-02-05T16:20:29.294Z,103100.38
2023-02-05T16:22:47.145Z,103085.63
2023-02-05T16:24:51.031Z,103089.09
2023-02-05T16:27:01.711Z,103105.56
2023-02-05T16:29:09.687Z,103092.56
2023-02-05T16:31:22.367Z,103112.44
2023-02-05T16:33:32.947Z,103111.59
2023-02-05T16:35:39.553Z,103108.09
2023-02-05T16:37:42.476Z,103072.66
2023-02-05T16:39:51.781Z,103105.50
2023-02-05T16:42:25.635Z,103096.00
2023-02-05T16:44:31.596Z,103115.88
2023-02-05T16:46:36.889Z,103109.81
2023-02-05T16:48:47.914Z,103114.16
2023-02-05T16:50:50.150Z,103115.00
2023-02-05T16:52:57.659Z,103106.34
2023-02-05T16:55:05.549Z,103116.69
2023-02-05T16:57:16.508Z,103131.28
2023-02-05T16:59:21.088Z,103127.78
2023-02-05T17:01:43.869Z,103116.50
2023-02-05T17:03:49.245Z,103075.81
2023-02-05T17:05:56.896Z,103125.06
2023-02-05T17:08:00.211Z,103093.09
2023-02-05T17:10:21.501Z,103140.72
2023-02-05T17:12:24.304Z,103142.44
2023-02-05T17:14:28.649Z,103141.59
2023-02-05T17:16:31.800Z,103146.78
2023-02-05T17:18:33.692Z,103142.47
2023-02-05T17:20:35.518Z,103119.09
2023-02-05T17:22:37.219Z,103139.06
2023-02-05T17:24:38.798Z,103145.06
2023-02-05T17:26:41.015Z,103083.56
2023-02-05T17:28:44.733Z,103116.47
2023-02-05T17:30:48.215Z,103150.19
2023-02-05T17:32:49.604Z,103151.88
2023-02-05T17:34:51.189Z,103154.38
2023-02-05T17:36:52.667Z,103156.97
2023-02-05T17:38:55.423Z,103111.66
2023-02-05T17:40:57.124Z,103122.91
2023-02-05T17:42:58.749Z,103133.31
2023-02-05T17:45:00.162Z,103138.59
2023-02-05T17:47:03.989Z,103105.72
2023-02-05T17:49:05.472Z,103086.66
2023-02-05T17:51:06.921Z,103126.56
2023-02-05T17:53:10.778Z,103072.03
2023-02-05T17:55:14.216Z,103113.63
2023-02-05T17:57:19.840Z,103162.97
2023-02-05T17:59:25.730Z,103155.09
2023-02-05T18:01:27.300Z,103120.44
2023-02-05T18:03:28.743Z,103142.00
2023-02-05T18:05:30.326Z,103161.00
2023-02-05T18:07:39.264Z,103121.13
2023-02-05T18:09:40.669Z,103148.88
2023-02-05T18:11:42.730Z,103132.47
2023-02-05T18:13:44.250Z,103156.63
2023-02-05T18:15:45.656Z,103133.28
2023-02-05T18:17:47.343Z,103148.03
2023-02-05T18:19:48.846Z,103125.50
2023-02-05T18:21:50.278Z,103091.75
2023-02-05T18:23:52.059Z,103113.41
2023-02-05T18:25:53.566Z,103149.69
2023-02-05T18:27:55.029Z,103129.69
2023-02-05T18:29:56.581Z,103145.28
2023-02-05T18:31:58.076Z,103106.13
2023-02-05T18:33:59.482Z,103100.94
2023-02-05T18:36:02.644Z,103134.00
2023-02-05T18:38:04.178Z,103146.91
2023-02-05T18:40:06.053Z,103133.78
2023-02-05T18:42:07.557Z,103142.28
2023-02-05T18:44:09.078Z,103158.75
2023-02-05T18:46:13.113Z,103159.63
2023-02-05T18:48:14.726Z,103127.59
2023-02-05T18:50:16.749Z,103159.69
2023-02-05T18:52:18.201Z,103141.53
2023-02-05T18:54:19.778Z,103145.78
2023-02-05T18:56:26.604Z,103164.88
2023-02-05T18:58:28.082Z,103141.44
2023-02-05T19:00:29.739Z,103166.53
2023-02-05T19:02:31.817Z,103139.72
2023-02-05T19:04:34.107Z,103139.03
2023-02-05T19:06:36.336Z,103138.16
2023-02-05T19:08:38.180Z,103168.63
2023-02-05T19:10:39.589Z,103152.16
2023-02-05T19:12:41.095Z,103177.31
2023-02-05T19:14:42.669Z,103173.88
2023-02-05T19:16:44.826Z,103153.97
2023-02-05T19:18:46.907Z,103156.53
2023-02-05T19:20:48.389Z,103175.44
2023-02-05T19:22:52.865Z,103185.03
2023-02-05T19:24:54.365Z,103185.09
2023-02-05T19:26:56.133Z,103181.59
2023-02-05T19:29:02.490Z,103178.84
2023-02-05T19:31:05.768Z,103183.19
2023-02-05T19:33:07.260Z,103154.44
2023-02-05T19:35:08.825Z,103111.19
2023-02-05T19:37:12.274Z,103166.59
2023-02-05T19:39:14.728Z,103177.00
2023-02-05T19:41:18.521Z,103198.59
2023-02-05T19:43:20.297Z,103152.69
2023-02-05T19:45:21.739Z,103171.84
2023-02-05T19:47:23.172Z,103125.94
2023-02-05T19:49:24.762Z,103148.53
2023-02-05T19:51:26.365Z,103168.44
2023-02-05T19:53:27.747Z,103145.06
2023-02-05T19:55:29.543Z,103171.84
2023-02-05T19:57:30.950Z,103217.78
2023-02-05T19:59:32.368Z,103214.47
2023-02-05T20:01:36.736Z,103227.34
2023-02-05T20:03:38.209Z,103170.84
2023-02-05T20:05:39.631Z,103233.25
2023-02-05T20:07:41.193Z,103182.09
2023-02-05T20:09:42.594Z,103187.34
2023-02-05T20:11:49.194Z,103209.94
2023-02-05T20:13:50.839Z,103210.81
2023-02-05T20:15:52.267Z,103205.66
2023-02-05T20:17:53.733Z,103202.13
2023-02-05T20:20:05.681Z,103168.31
2023-02-05T20:22:11.704Z,103237.72
2023-02-05T20:24:13.787Z,103217.06
2023-02-05T20:26:16.840Z,103229.28
2023-02-05T20:28:18.280Z,103216.28
2023-02-05T20:30:19.802Z,103154.78
2023-02-05T20:32:24.393Z,103230.13
2023-02-05T20:34:27.379Z,103233.63
2023-02-05T20:36:30.164Z,103227.56
2023-02-05T20:38:31.857Z,103209.34
2023-02-05T20:40:33.415Z,103197.84
2023-02-05T20:42:35.019Z,103230.63
2023-02-05T20:44:36.957Z,103243.41
2023-02-05T20:46:38.416Z,103236.50
2023-02-05T20:48:39.838Z,103208.94
2023-02-05T20:50:41.367Z,103233.97
2023-02-05T20:52:42.824Z,103192.41
2023-02-05T20:54:44.228Z,103205.47
2023-02-05T20:56:45.970Z,103209.84
2023-02-05T20:58:47.660Z,103240.28
2023-02-05T21:00:49.081Z,103216.91
2023-02-05T21:02:50.587Z,103241.91
2023-02-05T21:04:52.816Z,103234.03
2023-02-05T21:06:54.515Z,103208.81
2023-02-05T21:08:56.474Z,103233.03
2023-02-05T21:10:57.908Z,103206.91
2023-02-05T21:12:59.315Z,103215.66
2023-02-05T21:15:00.874Z,103228.81
2023-02-05T21:17:02.299Z,103253.13
2023-02-05T21:19:05.946Z,103209.59
2023-02-05T21:21:09.055Z,103231.16
2023-02-05T21:23:10.484Z,103251.94
2023-02-05T21:25:11.913Z,103251.97
2023-02-05T21:27:13.493Z,103233.69
2023-02-05T21:29:20.314Z,103255.44
2023-02-05T21:31:22.756Z,103250.09
2023-02-05T21:33:24.501Z,103224.84
2023-02-05T21:35:25.949Z,103267.31
2023-02-05T21:37:27.360Z,103261.34
2023-02-05T21:39:28.918Z,103199.84
2023-02-05T21:41:30.380Z,103264.13
2023-02-05T21:43:31.765Z,103260.44
2023-02-05T21:45:35.028Z,103235.25
2023-02-05T21:47:37.647Z,103241.34
2023-02-05T21:49:39.048Z,103244.78
2023-02-05T21:51:40.768Z,103282.97
2023-02-05T21:53:42.687Z,103273.47
2023-02-05T21:55:44.146Z,103241.56
2023-02-05T21:57:45.710Z,103227.66
2023-02-05T21:59:48.996Z,103286.69
2023-02-05T22:01:50.973Z,103292.00
2023-02-05T22:03:55.645Z,103292.94
2023-02-05T22:05:57.026Z,103256.56
2023-02-05T22:07:58.418Z,103296.34
2023-02-05T22:10:00.197Z,103260.06
2023-02-05T22:12:01.683Z,103254.13
2023-02-05T22:14:03.248Z,103252.44
2023-02-05T22:16:07.217Z,103287.91
2023-02-05T22:18:08.641Z,103245.19
2023-02-05T22:20:10.739Z,103282.47
2023-02-05T22:22:12.482Z,103278.22
2023-02-05T22:24:15.935Z,103248.78
2023-02-05T22:26:18.584Z,103277.41
2023-02-05T22:28:20.402Z,103259.22
2023-02-05T22:30:21.884Z,103238.38
2023-02-05T22:32:23.379Z,103217.41
2023-02-05T22:34:24.876Z,103268.72
2023-02-05T22:36:29.856Z,103263.47
2023-02-05T22:38:33.847Z,103203.47
2023-02-05T22:40:35.517Z,103252.06
2023-02-05T22:42:36.906Z,103230.53
2023-02-05T22:44:38.360Z,103265.22
2023-02-05T22:46:42.148Z,103273.00
2023-02-05T22:48:46.060Z,103276.50
2023-02-05T22:50:47.490Z,103269.59
2023-02-05T22:52:49.254Z,103272.22
2023-02-05T22:54:50.672Z,103239.13
2023-02-05T22:56:52.100Z,103272.59
2023-02-05T22:58:54.319Z,103240.44
2023-02-05T23:00:55.846Z,103283.09
2023-02-05T23:02:58.338Z,103246.84
2023-02-05T23:04:59.914Z,103241.72
2023-02-05T23:07:01.355Z,103224.38
2023-02-05T23:09:10.130Z,103266.91
2023-02-05T23:11:13.308Z,103228.88
2023-02-05T23:13:14.700Z,103260.13
2023-02-05T23:15:16.702Z,103256.72
2023-02-05T23:17:18.287Z,103243.69
2023-02-05T23:19:20.583Z,103255.84
2023-02-05T23:21:24.507Z,103253.28
2023-02-05T23:23:26.106Z,103194.31
2023-02-05T23:25:27.539Z,103214.25
2023-02-05T23:27:29.352Z,103259.28
2023-02-05T23:29:31.070Z,103209.94
2023-02-05T23:31:32.782Z,103231.38
2023-02-05T23:33:34.786Z,103269.41
2023-02-05T23:35:36.716Z,103272.06
2023-02-05T23:37:38.354Z,103267.00
2023-02-05T23:39:39.869Z,103227.31
2023-02-05T23:41:41.594Z,103206.56
2023-02-05T23:43:42.986Z,103266.38
2023-02-05T23:45:44.382Z,103261.19
2023-02-05T23:47:46.044Z,103241.19
2023-02-05T23:49:47.425Z,103264.56
2023-02-05T23:51:53.558Z,103240.19